Time;durP1;ratioP1;P1;durP2;ratioP2;P2;SDS_P1;SDS_P2;PMS_P1;PMS_P2;Temp;Humidity;BMP_temperature;BMP_pressure;BME280_temperature;BME280_humidity;BME280_pressure;Samples;Min_cycle;Max_cycle;Signal;HPM_P1;HPM_P2
2022/01/02 00:01:46;;;;;;;15.48;6.55;;;;;;;;;;5147994;27;20035;-57
2022/01/02 00:04:22;;;;;;;13.98;6.97;;;;;;;;;;5148200;27;20120;-57
2022/01/02 00:06:49;;;;;;;21.40;7.65;;;;;;;;;;5147537;27;20043;-57
2022/01/02 00:09:20;;;;;;;10.85;6.32;;;;;;;;;;5148302;27;20072;-57
2022/01/02 00:11:47;;;;;;;13.50;6.47;;;;;;;;;;5147899;27;20043;-57
2022/01/02 00:14:16;;;;;;;10.05;7.45;;;;;;;;;;5147688;27;20049;-57
2022/01/02 00:16:42;;;;;;;12.27;5.88;;;;;;;;;;5147657;27;20066;-57
2022/01/02 00:19:20;;;;;;;13.90;6.18;;;;;;;;;;5147964;27;20463;-58
2022/01/02 00:21:47;;;;;;;13.75;6.30;;;;;;;;;;5147135;27;20047;-58
2022/01/02 00:24:18;;;;;;;15.30;6.15;;;;;;;;;;5147756;27;20045;-57
2022/01/02 00:26:46;;;;;;;17.08;6.47;;;;;;;;;;5147625;27;20498;-57
2022/01/02 00:29:13;;;;;;;14.30;6.57;;;;;;;;;;5147443;27;20046;-57
2022/01/02 00:31:40;;;;;;;13.93;7.20;;;;;;;;;;5147450;27;20043;-57
2022/01/02 00:34:07;;;;;;;11.13;6.55;;;;;;;;;;5147719;27;20285;-57
2022/01/02 00:36:33;;;;;;;17.20;7.05;;;;;;;;;;5147045;27;20067;-57
2022/01/02 00:38:59;;;;;;;18.98;6.75;;;;;;;;;;5147423;27;20043;-57
2022/01/02 00:41:27;;;;;;;13.50;6.43;;;;;;;;;;5147367;27;20118;-56
2022/01/02 00:44:08;;;;;;;9.60;6.30;;;;;;;;;;5147133;27;20054;-57
2022/01/02 00:46:35;;;;;;;12.55;6.65;;;;;;;;;;5147179;27;20039;-57
2022/01/02 00:49:03;;;;;;;15.70;6.13;;;;;;;;;;5147169;27;20069;-58
2022/01/02 00:51:47;;;;;;;15.57;7.15;;;;;;;;;;5146724;27;20055;-57
2022/01/02 00:54:17;;;;;;;14.02;6.88;;;;;;;;;;5147279;27;20134;-57
2022/01/02 00:56:44;;;;;;;17.38;7.03;;;;;;;;;;5147002;27;20073;-58
2022/01/02 00:59:14;;;;;;;17.30;6.93;;;;;;;;;;5146941;27;20050;-57
2022/01/02 01:01:42;;;;;;;18.20;8.45;;;;;;;;;;5146956;27;20103;-58
2022/01/02 01:04:10;;;;;;;15.57;7.10;;;;;;;;;;5147034;27;20426;-57
2022/01/02 01:06:39;;;;;;;19.27;7.28;;;;;;;;;;5146600;27;20070;-59
2022/01/02 01:09:05;;;;;;;14.18;7.82;;;;;;;;;;5147028;27;20065;-58
2022/01/02 01:11:32;;;;;;;16.38;7.78;;;;;;;;;;5146719;27;20039;-57
2022/01/02 01:13:59;;;;;;;16.23;7.07;;;;;;;;;;5127639;27;20049;-57
2022/01/02 01:16:25;;;;;;;16.88;7.45;;;;;;;;;;5146615;27;20094;-57
2022/01/02 01:18:51;;;;;;;16.65;6.85;;;;;;;;;;5146897;27;20043;-57
2022/01/02 01:21:17;;;;;;;16.98;7.35;;;;;;;;;;5146308;27;20131;-57
2022/01/02 01:23:44;;;;;;;19.95;8.13;;;;;;;;;;5128238;27;20106;-58
2022/01/02 01:26:11;;;;;;;18.23;8.13;;;;;;;;;;5146593;27;20134;-57
2022/01/02 01:28:37;;;;;;;14.40;7.03;;;;;;;;;;5146206;27;20058;-58
2022/01/02 01:31:04;;;;;;;15.18;7.32;;;;;;;;;;5145863;27;20435;-58
2022/01/02 01:33:30;;;;;;;15.38;7.63;;;;;;;;;;5146994;27;20099;-57
2022/01/02 01:35:56;;;;;;;22.90;8.68;;;;;;;;;;5145579;27;20071;-57
2022/01/02 01:38:22;;;;;;;13.23;7.22;;;;;;;;;;5125088;27;20131;-57
2022/01/02 01:41:09;;;;;;;19.33;7.95;;;;;;;;;;5125693;28;20070;-58
2022/01/02 01:43:40;;;;;;;17.88;9.20;;;;;;;;;;5125524;28;20054;-58
2022/01/02 01:46:07;;;;;;;25.10;8.57;;;;;;;;;;5125675;28;20067;-58
2022/01/02 01:48:33;;;;;;;16.65;8.32;;;;;;;;;;5125743;28;20423;-57
2022/01/02 01:50:59;;;;;;;21.95;8.18;;;;;;;;;;5124801;28;20192;-57
2022/01/02 01:53:25;;;;;;;17.08;8.32;;;;;;;;;;5125490;28;20097;-56
2022/01/02 01:55:52;;;;;;;17.50;8.57;;;;;;;;;;5125299;28;20048;-57
2022/01/02 01:58:18;;;;;;;17.25;8.68;;;;;;;;;;5125525;28;20044;-58
2022/01/02 02:00:44;;;;;;;22.20;9.25;;;;;;;;;;5125298;28;20115;-57
2022/01/02 02:03:10;;;;;;;24.63;10.30;;;;;;;;;;5125157;28;20040;-58
2022/01/02 02:05:36;;;;;;;25.30;9.43;;;;;;;;;;5140044;27;20053;-58
2022/01/02 02:08:03;;;;;;;27.50;11.20;;;;;;;;;;5145853;27;20043;-57
2022/01/02 02:10:38;;;;;;;22.95;10.23;;;;;;;;;;5145943;27;20048;-58
2022/01/02 02:13:05;;;;;;;25.25;10.02;;;;;;;;;;5146167;27;20051;-58
2022/01/02 02:15:31;;;;;;;22.73;10.05;;;;;;;;;;5145309;27;20086;-58
2022/01/02 02:17:58;;;;;;;24.55;11.90;;;;;;;;;;5145718;27;20050;-58
2022/01/02 02:20:26;;;;;;;21.38;10.13;;;;;;;;;;5145092;28;20115;-58
2022/01/02 02:22:53;;;;;;;;;;;;;;;;;;5146123;28;20047;-58
2022/01/02 02:25:21;;;;;;;31.38;11.90;;;;;;;;;;5145608;28;19931;-60
2022/01/02 02:27:47;;;;;;;;;;;;;;;;;;5127781;28;20383;-59
2022/01/02 02:30:13;;;;;;;21.25;11.45;;;;;;;;;;5126984;28;19983;-57
2022/01/02 02:32:39;;;;;;;25.63;11.70;;;;;;;;;;5145485;28;20047;-57
2022/01/02 02:35:05;;;;;;;28.15;11.18;;;;;;;;;;5145157;28;20039;-57
2022/01/02 02:37:31;;;;;;;29.10;12.25;;;;;;;;;;5145433;28;20509;-58
2022/01/02 02:39:57;;;;;;;25.55;10.88;;;;;;;;;;5145743;28;20066;-57
2022/01/02 02:42:39;;;;;;;23.83;12.23;;;;;;;;;;5147439;27;20046;-57
2022/01/02 02:50:47;;;;;;;36.78;15.38;;;;;;;;;;5149025;27;20050;-56
2022/01/02 02:53:15;;;;;;;30.83;14.55;;;;;;;;;;5149352;27;20123;-56
2022/01/02 02:55:45;;;;;;;29.95;14.38;;;;;;;;;;5149121;27;20047;-56
2022/01/02 03:01:17;;;;;;;54.47;15.30;;;;;;;;;;5065726;28;20124;-57
2022/01/02 03:03:44;;;;;;;33.40;15.13;;;;;;;;;;5065509;28;20059;-56
2022/01/02 03:06:10;;;;;;;37.28;15.20;;;;;;;;;;5064982;28;20041;-55
2022/01/02 03:08:37;;;;;;;39.35;16.90;;;;;;;;;;5065335;28;20095;-55
2022/01/02 03:11:06;;;;;;;45.03;17.10;;;;;;;;;;5065404;28;20037;-55
2022/01/02 03:13:32;;;;;;;35.55;15.57;;;;;;;;;;5065571;28;20049;-56
2022/01/02 03:15:59;;;;;;;36.33;16.73;;;;;;;;;;5064757;28;20060;-55
2022/01/02 03:18:25;;;;;;;39.03;15.65;;;;;;;;;;5065303;28;20078;-55
2022/01/02 03:20:51;;;;;;;39.42;17.02;;;;;;;;;;5064466;28;20072;-55
2022/01/02 03:23:17;;;;;;;31.90;15.98;;;;;;;;;;5065129;28;20060;-56
2022/01/02 03:25:43;;;;;;;31.15;14.93;;;;;;;;;;5064874;28;20049;-55
2022/01/02 03:28:09;;;;;;;36.10;16.27;;;;;;;;;;5065252;28;20472;-57
2022/01/02 03:30:35;;;;;;;35.10;17.55;;;;;;;;;;5064713;28;20049;-56
2022/01/02 03:33:01;;;;;;;37.95;17.90;;;;;;;;;;5064847;28;20056;-56
2022/01/02 03:35:28;;;;;;;42.58;18.33;;;;;;;;;;5116107;27;20054;-56
2022/01/02 03:37:54;;;;;;;38.30;18.48;;;;;;;;;;5148723;27;20039;-56
2022/01/02 03:40:20;;;;;;;45.40;18.67;;;;;;;;;;5148837;27;20039;-55
2022/01/02 03:42:46;;;;;;;31.73;17.67;;;;;;;;;;5148398;27;20047;-56
2022/01/02 03:45:13;;;;;;;39.47;18.63;;;;;;;;;;5148368;27;20098;-57
2022/01/02 03:47:39;;;;;;;40.40;20.65;;;;;;;;;;5148479;27;20398;-57
2022/01/02 03:50:05;;;;;;;46.28;19.95;;;;;;;;;;5147980;27;20051;-55
2022/01/02 03:52:31;;;;;;;52.60;20.92;;;;;;;;;;5148187;27;20098;-54
2022/01/02 03:54:58;;;;;;;42.72;19.92;;;;;;;;;;5148182;27;20106;-55
2022/01/02 03:57:24;;;;;;;44.38;19.90;;;;;;;;;;5148471;27;20046;-56
2022/01/02 03:59:50;;;;;;;43.67;18.77;;;;;;;;;;5148217;27;20122;-57
2022/01/02 04:02:16;;;;;;;43.45;19.08;;;;;;;;;;5148285;27;20094;-57
2022/01/02 04:04:43;;;;;;;42.63;18.77;;;;;;;;;;5148760;27;20157;-56
2022/01/02 04:07:09;;;;;;;46.38;18.83;;;;;;;;;;5147539;27;20039;-57
2022/01/02 04:09:35;;;;;;;37.35;19.20;;;;;;;;;;5148125;27;20051;-57
2022/01/02 04:12:01;;;;;;;43.92;17.70;;;;;;;;;;5148080;27;20043;-56
2022/01/02 04:14:27;;;;;;;36.10;18.80;;;;;;;;;;5147794;27;20058;-57
2022/01/02 04:16:53;;;;;;;36.53;16.75;;;;;;;;;;5148165;27;20058;-57
2022/01/02 04:19:19;;;;;;;47.47;19.48;;;;;;;;;;5147940;27;20133;-56
2022/01/02 04:21:45;;;;;;;44.13;18.50;;;;;;;;;;5147399;27;20043;-55
2022/01/02 04:24:12;;;;;;;43.47;20.45;;;;;;;;;;5147969;27;20200;-55
2022/01/02 04:26:38;;;;;;;39.25;18.90;;;;;;;;;;5147719;27;20031;-54
2022/01/02 04:29:05;;;;;;;41.33;18.00;;;;;;;;;;5147874;27;20110;-55
2022/01/02 04:31:31;;;;;;;39.72;16.02;;;;;;;;;;5147534;27;20031;-55
2022/01/02 04:33:58;;;;;;;49.55;18.50;;;;;;;;;;5147579;27;20075;-55
2022/01/02 04:36:24;;;;;;;46.03;17.27;;;;;;;;;;5147099;27;20043;-55
2022/01/02 04:38:50;;;;;;;50.10;18.77;;;;;;;;;;5147531;27;20070;-54
2022/01/02 04:41:16;;;;;;;30.58;15.23;;;;;;;;;;5147617;27;20051;-55
2022/01/02 04:43:42;;;;;;;40.05;15.65;;;;;;;;;;5147769;27;20043;-54
2022/01/02 04:46:08;;;;;;;31.40;16.38;;;;;;;;;;5146985;27;20067;-54
2022/01/02 04:48:34;;;;;;;29.10;14.80;;;;;;;;;;5147426;27;20072;-54
2022/01/02 04:51:00;;;;;;;29.88;14.30;;;;;;;;;;5146675;27;20081;-54
2022/01/02 04:53:26;;;;;;;40.58;16.75;;;;;;;;;;5147021;27;20104;-54
2022/01/02 04:55:53;;;;;;;33.25;15.32;;;;;;;;;;5147281;27;20039;-54
2022/01/02 04:58:19;;;;;;;31.92;15.55;;;;;;;;;;5147204;27;20043;-55
2022/01/02 05:00:45;;;;;;;39.65;16.48;;;;;;;;;;5128372;27;20051;-55
2022/01/02 05:03:11;;;;;;;34.33;14.70;;;;;;;;;;5147374;27;20604;-56
2022/01/02 05:05:37;;;;;;;41.42;15.75;;;;;;;;;;5145790;27;20125;-55
2022/01/02 05:08:03;;;;;;;35.63;14.52;;;;;;;;;;5147120;27;20043;-55
2022/01/02 05:10:29;;;;;;;37.38;15.15;;;;;;;;;;5146853;27;20073;-56
2022/01/02 05:12:55;;;;;;;36.33;15.30;;;;;;;;;;5128321;27;20055;-55
2022/01/02 05:15:22;;;;;;;28.60;14.77;;;;;;;;;;5146436;27;20065;-57
2022/01/02 05:17:48;;;;;;;29.27;16.00;;;;;;;;;;5146673;27;20047;-56
2022/01/02 05:20:14;;;;;;;39.17;15.95;;;;;;;;;;5146275;27;20039;-57
2022/01/02 05:22:40;;;;;;;35.28;14.98;;;;;;;;;;5146580;27;20073;-57
2022/01/02 05:25:07;;;;;;;38.83;15.60;;;;;;;;;;5146622;27;20056;-56
2022/01/02 05:27:33;;;;;;;32.58;13.95;;;;;;;;;;5146626;27;20039;-57
2022/01/02 05:29:59;;;;;;;36.35;13.80;;;;;;;;;;5128008;27;20058;-56
2022/01/02 05:32:25;;;;;;;35.50;14.35;;;;;;;;;;5146752;27;20054;-57
2022/01/02 05:34:51;;;;;;;32.80;13.38;;;;;;;;;;5146394;27;20039;-57
2022/01/02 05:37:17;;;;;;;35.50;13.88;;;;;;;;;;5145946;27;20051;-57
2022/01/02 05:39:43;;;;;;;33.97;14.52;;;;;;;;;;5146400;27;20122;-57
2022/01/02 05:42:09;;;;;;;40.58;14.07;;;;;;;;;;5146423;27;20409;-57
2022/01/02 05:44:36;;;;;;;35.00;13.20;;;;;;;;;;5146135;27;20044;-57
2022/01/02 05:47:02;;;;;;;34.08;12.23;;;;;;;;;;5128114;27;20055;-57
2022/01/02 05:49:28;;;;;;;28.50;11.32;;;;;;;;;;5146305;27;20114;-57
2022/01/02 05:51:54;;;;;;;24.27;11.80;;;;;;;;;;5145371;27;20045;-58
2022/01/02 05:54:20;;;;;;;28.92;10.95;;;;;;;;;;5146208;27;20098;-58
2022/01/02 05:56:46;;;;;;;31.27;11.77;;;;;;;;;;5146090;27;20055;-58
2022/01/02 05:59:12;;;;;;;32.92;11.13;;;;;;;;;;5145970;27;20043;-56
2022/01/02 06:01:38;;;;;;;35.13;10.80;;;;;;;;;;5127568;27;20043;-57
2022/01/02 06:04:04;;;;;;;28.92;11.75;;;;;;;;;;5146056;27;20043;-58
2022/01/02 06:06:31;;;;;;;27.55;10.35;;;;;;;;;;5145433;27;20095;-58
2022/01/02 06:08:57;;;;;;;23.15;10.05;;;;;;;;;;5146006;27;20057;-58
2022/01/02 06:11:23;;;;;;;29.35;9.80;;;;;;;;;;5145713;27;20066;-57
2022/01/02 06:13:49;;;;;;;27.50;11.07;;;;;;;;;;5145645;27;20490;-58
2022/01/02 06:16:15;;;;;;;29.25;10.05;;;;;;;;;;5145391;27;20070;-57
2022/01/02 06:18:41;;;;;;;30.55;10.68;;;;;;;;;;5145933;27;20130;-57
2022/01/02 06:21:08;;;;;;;28.15;10.25;;;;;;;;;;5145120;28;20111;-57
2022/01/02 06:23:34;;;;;;;24.58;9.48;;;;;;;;;;5146023;28;20054;-56
2022/01/02 06:26:00;;;;;;;28.60;10.10;;;;;;;;;;5145803;28;20614;-56
2022/01/02 06:28:26;;;;;;;27.60;9.25;;;;;;;;;;5127376;28;20160;-57
2022/01/02 06:30:52;;;;;;;32.83;10.10;;;;;;;;;;5145156;28;20074;-57
2022/01/02 06:33:18;;;;;;;29.30;9.30;;;;;;;;;;5145688;28;20039;-57
2022/01/02 06:35:44;;;;;;;35.95;10.80;;;;;;;;;;5145146;28;20039;-55
2022/01/02 06:38:12;;;;;;;26.33;10.75;;;;;;;;;;5145530;28;20058;-56
2022/01/02 06:40:38;;;;;;;29.92;10.05;;;;;;;;;;5145584;28;20040;-56
2022/01/02 06:43:05;;;;;;;28.17;10.27;;;;;;;;;;5145544;28;20043;-56
2022/01/02 06:45:31;;;;;;;27.10;10.18;;;;;;;;;;5145145;28;20526;-57
2022/01/02 06:47:57;;;;;;;23.67;9.88;;;;;;;;;;5145993;28;20418;-56
2022/01/02 06:50:23;;;;;;;29.30;10.07;;;;;;;;;;5144877;28;20072;-56
2022/01/02 06:52:49;;;;;;;20.13;9.10;;;;;;;;;;5145365;28;20047;-56
2022/01/02 06:55:15;;;;;;;28.15;9.65;;;;;;;;;;5145341;28;20050;-56
2022/01/02 06:57:41;;;;;;;21.85;8.13;;;;;;;;;;5145193;28;20051;-55
2022/01/02 07:00:08;;;;;;;25.70;7.10;;;;;;;;;;5144854;28;20041;-56
2022/01/02 07:02:34;;;;;;;23.08;8.30;;;;;;;;;;5145703;28;20065;-57
2022/01/02 07:05:00;;;;;;;16.75;7.35;;;;;;;;;;5145222;28;20076;-60
2022/01/02 07:07:26;;;;;;;16.63;6.60;;;;;;;;;;5145080;28;20107;-55
2022/01/02 07:09:52;;;;;;;19.48;6.70;;;;;;;;;;5145190;28;20485;-57
2022/01/02 07:12:19;;;;;;;23.00;6.65;;;;;;;;;;5145215;28;20126;-55
2022/01/02 07:14:45;;;;;;;17.75;6.20;;;;;;;;;;5145064;28;20055;-56
2022/01/02 07:17:11;;;;;;;22.42;6.10;;;;;;;;;;5144975;28;20130;-54
2022/01/02 07:19:37;;;;;;;25.40;6.50;;;;;;;;;;5145265;28;20051;-55
2022/01/02 07:22:05;;;;;;;15.55;5.65;;;;;;;;;;5144623;28;20102;-56
2022/01/02 07:24:31;;;;;;;20.08;5.78;;;;;;;;;;5145148;28;20043;-56
2022/01/02 07:26:57;;;;;;;23.33;5.93;;;;;;;;;;5145292;27;20047;-56
2022/01/02 07:29:23;;;;;;;21.58;5.53;;;;;;;;;;5148120;27;20118;-57
2022/01/02 07:31:49;;;;;;;11.93;4.53;;;;;;;;;;5148663;27;20043;-57
2022/01/02 07:34:15;;;;;;;13.75;4.38;;;;;;;;;;5149024;27;20043;-56
2022/01/02 07:36:44;;;;;;;9.77;4.25;;;;;;;;;;5148138;27;20042;-57
2022/01/02 07:39:15;;;;;;;12.23;4.82;;;;;;;;;;5148798;27;20050;-56
2022/01/02 07:41:41;;;;;;;10.50;4.25;;;;;;;;;;5148499;27;20039;-57
2022/01/02 07:44:08;;;;;;;12.18;4.82;;;;;;;;;;5148372;27;20074;-57
2022/01/02 07:46:34;;;;;;;15.38;4.55;;;;;;;;;;5148359;27;20564;-57
2022/01/02 07:49:00;;;;;;;14.80;5.00;;;;;;;;;;5148408;27;20058;-58
2022/01/02 07:51:27;;;;;;;10.27;4.03;;;;;;;;;;5147840;27;20042;-58
2022/01/02 07:53:53;;;;;;;10.75;4.88;;;;;;;;;;5148627;27;20043;-58
2022/01/02 07:56:19;;;;;;;16.48;4.53;;;;;;;;;;5148231;27;20103;-56
2022/01/02 07:58:45;;;;;;;9.98;4.55;;;;;;;;;;5148321;27;20482;-56
2022/01/02 08:01:11;;;;;;;12.88;4.93;;;;;;;;;;5147968;27;20047;-57
2022/01/02 08:03:38;;;;;;;7.00;4.13;;;;;;;;;;5129953;27;20102;-58
2022/01/02 08:06:04;;;;;;;12.00;6.22;;;;;;;;;;5147894;27;20053;-56
2022/01/02 08:08:30;;;;;;;17.92;5.50;;;;;;;;;;5148130;27;20035;-57
2022/01/02 08:10:56;;;;;;;12.75;5.03;;;;;;;;;;5148186;27;20051;-56
2022/01/02 08:13:22;;;;;;;14.60;5.93;;;;;;;;;;5129486;27;20055;-56
2022/01/02 08:15:49;;;;;;;16.48;5.35;;;;;;;;;;5147276;27;20078;-55
2022/01/02 08:18:16;;;;;;;20.95;6.20;;;;;;;;;;5147914;27;20039;-54
2022/01/02 08:20:45;;;;;;;14.93;5.78;;;;;;;;;;5146999;27;20053;-56
2022/01/02 08:23:12;;;;;;;15.50;4.38;;;;;;;;;;5148138;27;20039;-57
2022/01/02 08:25:38;;;;;;;15.10;6.00;;;;;;;;;;5129371;27;20047;-56
2022/01/02 08:28:04;;;;;;;9.70;5.47;;;;;;;;;;5147540;27;20088;-57
2022/01/02 08:30:30;;;;;;;17.85;5.50;;;;;;;;;;5147619;27;20211;-55
2022/01/02 08:32:56;;;;;;;12.90;6.50;;;;;;;;;;5129125;27;20096;-57
2022/01/02 08:35:22;;;;;;;14.00;6.82;;;;;;;;;;5147110;27;20107;-57
2022/01/02 08:37:48;;;;;;;12.10;5.93;;;;;;;;;;5147581;27;20043;-56
2022/01/02 08:40:15;;;;;;;13.90;6.68;;;;;;;;;;5146045;27;20039;-58
2022/01/02 08:42:41;;;;;;;13.77;6.97;;;;;;;;;;5147389;27;20103;-59
2022/01/02 08:45:07;;;;;;;18.50;6.30;;;;;;;;;;5147359;27;20102;-57
2022/01/02 08:47:33;;;;;;;11.93;6.13;;;;;;;;;;5128385;27;20095;-57
2022/01/02 08:50:00;;;;;;;14.63;6.93;;;;;;;;;;5146915;27;20069;-57
2022/01/02 08:52:26;;;;;;;12.30;6.03;;;;;;;;;;5128509;27;20047;-56
2022/01/02 08:54:52;;;;;;;14.77;7.05;;;;;;;;;;5147424;27;20051;-57
2022/01/02 08:57:18;;;;;;;11.80;6.00;;;;;;;;;;5147282;27;20045;-57
2022/01/02 08:59:44;;;;;;;16.17;6.72;;;;;;;;;;5146911;27;20114;-58
2022/01/02 09:02:10;;;;;;;10.77;6.15;;;;;;;;;;5146944;27;20078;-58
2022/01/02 09:04:36;;;;;;;13.50;6.25;;;;;;;;;;5146905;27;20133;-57
2022/01/02 09:07:03;;;;;;;14.68;6.13;;;;;;;;;;5146456;27;20515;-57
2022/01/02 09:09:29;;;;;;;11.85;6.45;;;;;;;;;;5147240;27;20050;-58
2022/01/02 09:11:55;;;;;;;13.07;6.55;;;;;;;;;;5146527;27;20043;-57
2022/01/02 09:14:21;;;;;;;8.13;4.90;;;;;;;;;;5146503;27;20106;-58
2022/01/02 09:16:47;;;;;;;10.05;5.22;;;;;;;;;;5146416;27;20541;-56
2022/01/02 09:19:14;;;;;;;12.30;5.35;;;;;;;;;;5146671;27;20047;-57
2022/01/02 09:21:40;;;;;;;14.45;6.22;;;;;;;;;;5146001;27;20088;-56
2022/01/02 09:24:07;;;;;;;17.42;5.85;;;;;;;;;;5146476;27;20043;-57
2022/01/02 09:26:33;;;;;;;14.38;7.95;;;;;;;;;;5146319;27;20078;-57
2022/01/02 09:28:59;;;;;;;13.75;7.18;;;;;;;;;;5146568;27;20106;-56
2022/01/02 09:31:25;;;;;;;20.38;9.80;;;;;;;;;;5127642;27;20082;-56
2022/01/02 09:33:51;;;;;;;20.90;9.05;;;;;;;;;;5146812;27;20065;-55
2022/01/02 09:36:18;;;;;;;25.75;11.05;;;;;;;;;;5127754;27;20047;-56
2022/01/02 09:38:44;;;;;;;18.77;9.57;;;;;;;;;;5146358;27;20050;-55
2022/01/02 09:41:10;;;;;;;21.15;10.98;;;;;;;;;;5146202;27;20440;-56
2022/01/02 09:43:36;;;;;;;15.60;9.77;;;;;;;;;;5146448;27;20058;-55
2022/01/02 09:46:03;;;;;;;12.82;8.27;;;;;;;;;;5145855;27;20098;-58
2022/01/02 09:48:29;;;;;;;22.90;10.02;;;;;;;;;;5146477;27;20106;-57
2022/01/02 09:50:56;;;;;;;15.80;8.70;;;;;;;;;;5144980;27;20047;-57
2022/01/02 09:53:23;;;;;;;17.50;9.90;;;;;;;;;;5146019;27;20102;-56
2022/01/02 09:55:49;;;;;;;15.85;9.27;;;;;;;;;;5145934;27;20113;-57
2022/01/02 09:58:15;;;;;;;18.58;11.15;;;;;;;;;;5146312;27;20111;-57
2022/01/02 10:00:47;;;;;;;19.73;10.85;;;;;;;;;;5145858;27;20031;-57
2022/01/02 10:03:13;;;;;;;24.95;12.18;;;;;;;;;;5146131;27;20077;-57
2022/01/02 10:05:56;;;;;;;15.77;10.38;;;;;;;;;;5145465;27;20043;-56
2022/01/02 10:08:24;;;;;;;19.10;11.32;;;;;;;;;;5145846;27;20079;-57
2022/01/02 10:10:58;;;;;;;22.42;11.23;;;;;;;;;;5145799;27;20076;-56
2022/01/02 10:13:36;;;;;;;19.30;11.75;;;;;;;;;;5145800;27;20130;-56
2022/01/02 10:16:02;;;;;;;25.33;12.15;;;;;;;;;;5145712;27;20418;-55
2022/01/02 10:18:28;;;;;;;16.85;9.80;;;;;;;;;;5145646;27;20047;-56
2022/01/02 10:20:59;;;;;;;18.00;10.27;;;;;;;;;;5144736;27;20062;-56
2022/01/02 10:23:25;;;;;;;21.25;10.10;;;;;;;;;;5145766;27;20503;-57
2022/01/02 10:25:59;;;;;;;25.88;11.35;;;;;;;;;;5127284;27;20051;-56
2022/01/02 10:28:28;;;;;;;19.13;10.77;;;;;;;;;;5145792;27;20050;-56
2022/01/02 10:30:56;;;;;;;23.40;10.43;;;;;;;;;;5145477;28;20046;-56
2022/01/02 10:33:22;;;;;;;20.38;9.57;;;;;;;;;;5145430;28;20054;-56
2022/01/02 10:35:55;;;;;;;12.85;7.10;;;;;;;;;;5145064;28;20074;-57
2022/01/02 10:38:22;;;;;;;24.63;10.73;;;;;;;;;;5145403;28;20054;-57
2022/01/02 10:40:48;;;;;;;17.27;10.00;;;;;;;;;;5145562;28;20046;-57
2022/01/02 10:43:28;;;;;;;22.50;10.68;;;;;;;;;;5145629;28;20521;-57
2022/01/02 10:45:55;;;;;;;20.77;8.27;;;;;;;;;;5126761;28;20139;-56
2022/01/02 10:48:32;;;;;;;21.48;8.60;;;;;;;;;;5145645;28;20043;-57
2022/01/02 10:51:02;;;;;;;15.32;10.02;;;;;;;;;;5144756;28;20047;-57
2022/01/02 10:53:28;;;;;;;16.13;7.80;;;;;;;;;;5145353;28;20054;-57
2022/01/02 10:55:55;;;;;;;19.27;7.80;;;;;;;;;;5145147;28;20043;-58
2022/01/02 10:58:21;;;;;;;21.08;9.25;;;;;;;;;;5127187;28;20043;-57
2022/01/02 11:00:47;;;;;;;14.80;7.82;;;;;;;;;;5144945;28;20082;-57
2022/01/02 11:03:13;;;;;;;20.52;7.78;;;;;;;;;;5147041;27;20043;-57
2022/01/02 11:05:40;;;;;;;23.35;7.80;;;;;;;;;;5148841;27;20069;-57
2022/01/02 11:08:07;;;;;;;18.60;6.38;;;;;;;;;;5149208;27;20512;-57
2022/01/02 11:10:35;;;;;;;17.08;6.40;;;;;;;;;;5149167;27;20094;-58
2022/01/02 11:13:03;;;;;;;;;;;;;;;;;;5131159;27;20108;-57
2022/01/02 11:15:29;;;;;;;9.43;4.88;;;;;;;;;;5148625;27;19919;-57
2022/01/02 11:17:56;;;;;;;20.73;5.75;;;;;;;;;;5149348;27;20395;-57
2022/01/02 11:20:25;;;;;;;13.27;5.03;;;;;;;;;;5148598;27;20153;-56
2022/01/02 11:23:00;;;;;;;22.08;5.85;;;;;;;;;;5130478;27;20050;-59
2022/01/02 11:25:31;;;;;;;13.98;4.72;;;;;;;;;;5130889;27;20399;-58
2022/01/02 11:28:00;;;;;;;16.65;5.07;;;;;;;;;;5149071;27;20416;-58
2022/01/02 11:30:29;;;;;;;11.82;4.57;;;;;;;;;;5148585;27;20492;-58
2022/01/02 11:33:03;;;;;;;18.05;5.18;;;;;;;;;;5148709;27;20110;-57
2022/01/02 11:35:31;;;;;;;20.05;5.72;;;;;;;;;;5129990;27;20039;-58
2022/01/02 11:38:02;;;;;;;12.95;4.82;;;;;;;;;;5148614;27;20051;-58
2022/01/02 11:40:46;;;;;;;15.07;4.93;;;;;;;;;;5148673;27;20039;-58
2022/01/02 11:43:31;;;;;;;14.65;6.15;;;;;;;;;;5148927;27;20070;-58
2022/01/02 11:46:14;;;;;;;14.50;5.78;;;;;;;;;;5148250;27;20907;-58
2022/01/02 11:48:40;;;;;;;15.27;5.32;;;;;;;;;;5148726;27;20085;-57
2022/01/02 11:51:07;;;;;;;16.20;4.68;;;;;;;;;;5147784;27;20078;-57
2022/01/02 11:53:36;;;;;;;13.93;4.65;;;;;;;;;;5148377;27;20067;-57
2022/01/02 11:56:04;;;;;;;16.80;4.72;;;;;;;;;;5148421;27;20039;-58
2022/01/02 11:58:46;;;;;;;14.05;5.07;;;;;;;;;;5148397;27;20047;-57
2022/01/02 12:01:32;;;;;;;14.63;4.13;;;;;;;;;;5147725;27;20047;-57
2022/01/02 12:03:58;;;;;;;16.02;5.13;;;;;;;;;;5148187;27;20047;-56
2022/01/02 12:06:35;;;;;;;13.75;3.90;;;;;;;;;;5147791;27;20118;-57
2022/01/02 12:09:04;;;;;;;13.40;4.60;;;;;;;;;;5129861;27;20079;-57
2022/01/02 12:11:33;;;;;;;19.27;3.92;;;;;;;;;;5148015;27;20046;-57
2022/01/02 12:14:03;;;;;;;11.20;3.72;;;;;;;;;;5147678;27;20047;-58
2022/01/02 12:16:34;;;;;;;16.35;4.47;;;;;;;;;;5147511;27;20051;-58
2022/01/02 12:19:02;;;;;;;16.38;4.30;;;;;;;;;;5147878;27;20043;-58
2022/01/02 12:21:28;;;;;;;19.23;4.03;;;;;;;;;;5147176;27;20546;-58
2022/01/02 12:23:55;;;;;;;12.00;3.75;;;;;;;;;;5147917;27;20043;-58
2022/01/02 12:26:26;;;;;;;21.00;4.60;;;;;;;;;;5147641;27;20054;-58
2022/01/02 12:28:57;;;;;;;18.17;4.03;;;;;;;;;;5148216;27;20654;-58
2022/01/02 12:31:28;;;;;;;19.35;5.38;;;;;;;;;;5147373;27;20096;-58
2022/01/02 12:33:58;;;;;;;15.70;4.47;;;;;;;;;;5129363;27;20053;-58
2022/01/02 12:36:24;;;;;;;18.63;4.30;;;;;;;;;;5147075;27;20043;-58
2022/01/02 12:38:52;;;;;;;14.25;3.47;;;;;;;;;;5128716;27;20078;-58
2022/01/02 12:41:19;;;;;;;19.85;5.00;;;;;;;;;;5147478;27;20455;-58
2022/01/02 12:43:57;;;;;;;15.57;3.10;;;;;;;;;;5147673;27;20122;-58
2022/01/02 12:46:43;;;;;;;13.15;2.70;;;;;;;;;;5147014;27;20119;-58
2022/01/02 12:49:09;;;;;;;14.43;3.28;;;;;;;;;;5147518;27;20054;-58
2022/01/02 12:51:36;;;;;;;13.60;3.28;;;;;;;;;;5146573;27;20043;-57
2022/01/02 12:54:08;;;;;;;11.35;3.50;;;;;;;;;;5147201;27;20043;-58
2022/01/02 12:56:41;;;;;;;13.80;3.63;;;;;;;;;;5147169;27;20047;-57
2022/01/02 12:59:14;;;;;;;14.77;2.58;;;;;;;;;;5147360;27;20075;-59
2022/01/02 13:01:51;;;;;;;20.10;3.00;;;;;;;;;;5128598;27;20118;-58
2022/01/02 13:04:22;;;;;;;15.27;3.05;;;;;;;;;;5146930;27;20047;-58
2022/01/02 13:06:48;;;;;;;21.85;3.45;;;;;;;;;;5146569;27;20440;-58
2022/01/02 13:09:31;;;;;;;13.27;3.72;;;;;;;;;;5146951;27;20035;-57
2022/01/02 13:11:58;;;;;;;13.10;2.80;;;;;;;;;;5146716;27;20122;-58
2022/01/02 13:14:31;;;;;;;10.02;2.60;;;;;;;;;;5146470;27;20192;-55
2022/01/02 13:16:57;;;;;;;12.93;2.75;;;;;;;;;;5146862;27;20043;-57
2022/01/02 13:19:24;;;;;;;15.57;2.75;;;;;;;;;;5146805;27;20071;-58
2022/01/02 13:21:50;;;;;;;14.85;2.80;;;;;;;;;;5146078;27;20061;-57
2022/01/02 13:24:23;;;;;;;11.05;2.33;;;;;;;;;;5146832;27;20402;-57
2022/01/02 13:26:49;;;;;;;14.98;3.05;;;;;;;;;;5145753;27;20047;-58
2022/01/02 13:29:26;;;;;;;17.98;3.00;;;;;;;;;;5146483;27;20039;-58
2022/01/02 13:31:53;;;;;;;15.52;3.47;;;;;;;;;;5146203;27;20043;-58
2022/01/02 13:34:27;;;;;;;18.30;3.22;;;;;;;;;;5146623;27;20047;-58
2022/01/02 13:36:54;;;;;;;17.45;3.35;;;;;;;;;;5145735;27;20055;-57
2022/01/02 13:39:37;;;;;;;14.65;3.47;;;;;;;;;;5146191;27;20111;-58
2022/01/02 13:42:03;;;;;;;14.50;2.88;;;;;;;;;;5146207;27;20039;-58
2022/01/02 13:44:36;;;;;;;16.75;3.03;;;;;;;;;;5146240;27;20075;-58
2022/01/02 13:47:02;;;;;;;16.05;2.58;;;;;;;;;;5146330;27;20058;-57
2022/01/02 13:49:45;;;;;;;12.00;2.05;;;;;;;;;;5146106;27;20050;-58
2022/01/02 13:52:11;;;;;;;7.63;2.72;;;;;;;;;;5145347;27;20047;-58
2022/01/02 13:54:38;;;;;;;16.55;3.35;;;;;;;;;;5127813;27;20117;-59
2022/01/02 13:57:06;;;;;;;10.52;2.45;;;;;;;;;;5145850;27;20503;-58
2022/01/02 13:59:32;;;;;;;8.20;2.33;;;;;;;;;;5146119;27;20051;-58
2022/01/02 14:01:58;;;;;;;16.67;2.80;;;;;;;;;;5145775;27;20043;-58
2022/01/02 14:04:24;;;;;;;19.20;2.45;;;;;;;;;;5146074;27;20126;-58
2022/01/02 14:06:50;;;;;;;14.13;2.22;;;;;;;;;;5145119;27;20099;-57
2022/01/02 14:09:17;;;;;;;26.17;4.15;;;;;;;;;;5146057;27;20111;-58
2022/01/02 14:11:46;;;;;;;14.75;2.95;;;;;;;;;;5145695;27;20047;-59
2022/01/02 14:14:21;;;;;;;13.75;2.53;;;;;;;;;;5145933;27;20051;-58
2022/01/02 14:17:02;;;;;;;13.35;2.97;;;;;;;;;;5127252;27;20054;-58
2022/01/02 14:19:28;;;;;;;12.30;2.92;;;;;;;;;;5145850;27;20043;-58
2022/01/02 14:21:54;;;;;;;11.82;2.33;;;;;;;;;;5145133;27;20043;-58
2022/01/02 14:24:21;;;;;;;14.38;2.85;;;;;;;;;;5127033;27;20083;-58
2022/01/02 14:26:47;;;;;;;10.32;2.28;;;;;;;;;;5127205;27;20361;-58
2022/01/02 14:29:13;;;;;;;10.48;2.42;;;;;;;;;;5127480;27;20047;-59
2022/01/02 14:31:40;;;;;;;13.88;2.28;;;;;;;;;;5126985;28;20498;-57
2022/01/02 14:34:06;;;;;;;17.02;3.13;;;;;;;;;;5145696;28;20047;-58
2022/01/02 14:36:32;;;;;;;12.60;2.53;;;;;;;;;;5145592;27;20102;-58
2022/01/02 14:38:58;;;;;;;10.85;2.40;;;;;;;;;;5149817;27;20058;-59